createdAt,value
2023-02-18T00:02:19.509Z,87.23
2023-02-18T00:05:05.404Z,87.47
2023-02-18T00:07:50.920Z,87.31
2023-02-18T00:10:36.283Z,87.51
2023-02-18T00:13:21.674Z,87.60
2023-02-18T00:16:10.489Z,87.19
2023-02-18T00:19:00.896Z,87.25
2023-02-18T00:21:47.144Z,87.35
2023-02-18T00:24:32.295Z,87.66
2023-02-18T00:27:17.859Z,87.03
2023-02-18T00:30:04.781Z,87.41
2023-02-18T00:32:51.891Z,87.00
2023-02-18T00:35:37.552Z,87.12
2023-02-18T00:38:22.965Z,86.97
2023-02-18T00:41:08.360Z,86.59
2023-02-18T00:43:54.989Z,87.20
2023-02-18T00:46:40.935Z,87.12
2023-02-18T00:49:26.622Z,86.97
2023-02-18T00:52:11.958Z,87.00
2023-02-18T00:54:59.438Z,87.32
2023-02-18T00:57:44.804Z,86.97
2023-02-18T01:00:30.145Z,87.01
2023-02-18T01:03:15.952Z,87.12
2023-02-18T01:06:01.301Z,86.61
2023-02-18T01:08:46.723Z,86.79
2023-02-18T01:11:32.435Z,86.28
2023-02-18T01:14:18.096Z,86.43
2023-02-18T01:17:03.626Z,86.29
2023-02-18T01:19:48.837Z,86.27
2023-02-18T01:22:34.309Z,86.35
2023-02-18T01:25:19.943Z,86.59
2023-02-18T01:28:07.721Z,86.87
2023-02-18T01:30:54.741Z,86.40
2023-02-18T01:33:40.817Z,86.78
2023-02-18T01:36:26.355Z,86.43
2023-02-18T01:39:14.859Z,86.79
2023-02-18T01:42:00.570Z,86.62
2023-02-18T01:44:48.484Z,86.01
2023-02-18T01:47:33.711Z,85.92
2023-02-18T01:50:19.217Z,85.87
2023-02-18T01:53:05.080Z,85.25
2023-02-18T01:55:50.674Z,85.13
2023-02-18T01:58:36.834Z,84.57
2023-02-18T02:01:23.065Z,84.24
2023-02-18T02:04:08.653Z,84.33
2023-02-18T02:06:54.469Z,83.63
2023-02-18T02:09:42.912Z,84.08
2023-02-18T02:12:34.464Z,83.87
2023-02-18T02:15:59.811Z,83.58
2023-02-18T02:18:57.597Z,83.17
2023-02-18T02:21:55.615Z,82.76
2023-02-18T02:25:00.714Z,82.91
2023-02-18T02:28:08.718Z,82.79
2023-02-18T02:31:26.835Z,82.79
2023-02-18T02:34:27.353Z,82.60
2023-02-18T02:37:34.429Z,82.16
2023-02-18T02:40:46.329Z,82.00
2023-02-18T02:43:50.373Z,82.18
2023-02-18T02:46:41.199Z,81.79
2023-02-18T02:49:32.638Z,81.84
2023-02-18T02:52:23.819Z,81.86
2023-02-18T02:55:12.247Z,82.22
2023-02-18T02:58:00.051Z,82.44
2023-02-18T03:01:03.686Z,82.33
2023-02-18T03:04:10.612Z,82.29
2023-02-18T03:07:01.177Z,82.20
2023-02-18T03:10:18.239Z,81.47
2023-02-18T03:13:32.597Z,81.07
2023-02-18T03:16:24.245Z,81.04
2023-02-18T03:19:18.684Z,80.78
2023-02-18T03:22:20.571Z,80.22
2023-02-18T03:25:06.245Z,80.33
2023-02-18T03:28:00.255Z,79.83
2023-02-18T03:30:53.082Z,79.54
2023-02-18T03:33:45.756Z,79.27
2023-02-18T03:36:33.274Z,79.49
2023-02-18T03:39:21.300Z,79.09
2023-02-18T03:42:07.529Z,78.75
2023-02-18T03:44:53.268Z,78.45
2023-02-18T03:47:41.189Z,78.60
2023-02-18T03:50:26.728Z,77.74
2023-02-18T03:53:12.249Z,78.04
2023-02-18T03:55:57.754Z,78.06
2023-02-18T03:58:43.148Z,77.45
2023-02-18T04:01:28.948Z,77.35
2023-02-18T04:04:14.487Z,77.22
2023-02-18T04:06:59.727Z,77.53
2023-02-18T04:09:45.266Z,77.01
2023-02-18T04:12:30.887Z,77.19
2023-02-18T04:15:16.500Z,76.53
2023-02-18T04:18:02.183Z,76.08
2023-02-18T04:20:47.828Z,76.88
2023-02-18T04:23:33.707Z,76.16
2023-02-18T04:26:19.565Z,75.93
2023-02-18T04:29:05.405Z,76.22
2023-02-18T04:31:50.828Z,74.44
2023-02-18T04:34:36.491Z,74.55
2023-02-18T04:37:22.169Z,74.18
2023-02-18T04:40:08.368Z,74.67
2023-02-18T04:42:53.766Z,74.16
2023-02-18T04:45:39.269Z,73.53
2023-02-18T04:48:24.727Z,70.68
2023-02-18T04:51:10.248Z,70.49
2023-02-18T04:53:55.572Z,68.58
2023-02-18T04:56:40.948Z,65.56
2023-02-18T04:59:26.530Z,64.62
2023-02-18T05:02:11.862Z,64.80
2023-02-18T05:04:57.319Z,63.54
2023-02-18T05:07:42.944Z,64.09
2023-02-18T05:10:28.659Z,64.17
2023-02-18T05:13:14.201Z,64.17
2023-02-18T05:16:00.596Z,65.19
2023-02-18T05:18:46.217Z,64.09
2023-02-18T05:21:31.941Z,64.78
2023-02-18T05:24:17.690Z,65.54
2023-02-18T05:27:03.442Z,65.54
2023-02-18T05:29:49.029Z,65.56
2023-02-18T05:32:34.539Z,65.81
2023-02-18T05:35:19.719Z,66.27
2023-02-18T05:38:05.266Z,66.29
2023-02-18T05:40:50.805Z,66.73
2023-02-18T05:43:56.299Z,66.58
2023-02-18T05:46:41.810Z,66.43
2023-02-18T05:49:29.257Z,67.14
2023-02-18T05:52:14.410Z,66.47
2023-02-18T05:54:59.589Z,67.03
2023-02-18T05:57:44.980Z,63.91
2023-02-18T06:00:31.788Z,63.45
2023-02-18T06:03:17.158Z,63.79
2023-02-18T06:06:02.565Z,64.16
2023-02-18T06:08:47.917Z,64.24
2023-02-18T06:11:33.286Z,63.74
2023-02-18T06:14:18.955Z,62.33
2023-02-18T06:17:04.697Z,61.27
2023-02-18T06:19:50.106Z,58.93
2023-02-18T06:22:35.664Z,57.66
2023-02-18T06:25:21.180Z,57.91
2023-02-18T06:28:07.239Z,57.72
2023-02-18T06:30:53.136Z,56.13
2023-02-18T06:33:38.823Z,55.36
2023-02-18T06:36:24.304Z,56.56
2023-02-18T06:39:09.610Z,55.57
2023-02-18T06:41:54.900Z,56.07
2023-02-18T06:44:40.383Z,56.71
2023-02-18T06:47:25.547Z,54.77
2023-02-18T06:50:11.307Z,54.35
2023-02-18T06:52:57.191Z,54.02
2023-02-18T06:55:43.597Z,53.59
2023-02-18T06:58:29.170Z,52.94
2023-02-18T07:01:14.500Z,52.90
2023-02-18T07:03:59.839Z,53.03
2023-02-18T07:06:45.278Z,52.48
2023-02-18T07:09:30.855Z,52.57
2023-02-18T07:12:16.525Z,52.36
2023-02-18T07:15:01.823Z,52.06
2023-02-18T07:17:47.147Z,51.37
2023-02-18T07:20:33.105Z,52.01
2023-02-18T07:23:18.951Z,51.61
2023-02-18T07:26:09.336Z,52.46
2023-02-18T07:28:54.981Z,52.42
2023-02-18T07:31:40.418Z,51.49
2023-02-18T07:34:26.462Z,51.97
2023-02-18T07:37:12.566Z,51.90
2023-02-18T07:39:58.627Z,51.73
2023-02-18T07:42:45.919Z,51.20
2023-02-18T07:45:31.811Z,51.25
2023-02-18T07:48:18.952Z,51.00
2023-02-18T07:51:07.483Z,50.92
2023-02-18T07:53:53.137Z,50.91
2023-02-18T07:56:39.303Z,50.38
2023-02-18T07:59:24.710Z,49.87
2023-02-18T08:02:24.083Z,50.44
2023-02-18T08:05:10.835Z,51.33
2023-02-18T08:07:56.654Z,50.50
2023-02-18T08:10:43.043Z,50.29
2023-02-18T08:13:30.068Z,49.01
2023-02-18T08:16:17.116Z,49.17
2023-02-18T08:19:04.009Z,48.78
2023-02-18T08:21:49.434Z,48.88
2023-02-18T08:24:34.778Z,49.62
2023-02-18T08:27:20.418Z,48.00
2023-02-18T08:30:08.310Z,47.96
2023-02-18T08:32:53.817Z,48.01
2023-02-18T08:35:41.228Z,49.08
2023-02-18T08:38:27.038Z,47.14
2023-02-18T08:41:14.613Z,48.09
2023-02-18T08:44:00.244Z,47.67
2023-02-18T08:46:48.104Z,48.03
2023-02-18T08:49:33.768Z,47.49
2023-02-18T08:52:19.420Z,46.86
2023-02-18T08:55:06.008Z,46.67
2023-02-18T08:57:52.384Z,46.83
2023-02-18T09:00:40.114Z,47.38
2023-02-18T09:03:27.035Z,46.24
2023-02-18T09:06:12.340Z,45.95
2023-02-18T09:08:58.054Z,45.64
2023-02-18T09:11:43.865Z,46.70
2023-02-18T09:14:29.628Z,46.90
2023-02-18T09:17:15.480Z,46.76
2023-02-18T09:20:01.013Z,45.89
2023-02-18T09:22:46.786Z,46.42
2023-02-18T09:25:32.180Z,46.51
2023-02-18T09:28:17.802Z,47.08
2023-02-18T09:31:08.871Z,46.57
2023-02-18T09:34:03.370Z,47.42
2023-02-18T09:36:48.968Z,45.75
2023-02-18T09:39:34.178Z,46.19
2023-02-18T09:42:24.584Z,46.44
2023-02-18T09:45:13.431Z,46.19
2023-02-18T09:48:01.491Z,45.54
2023-02-18T09:50:52.619Z,46.63
2023-02-18T09:53:38.204Z,45.84
2023-02-18T09:56:31.503Z,44.94
2023-02-18T09:59:23.623Z,46.27
2023-02-18T10:02:17.479Z,46.57
2023-02-18T10:05:03.234Z,47.36
2023-02-18T10:07:51.640Z,45.41
2023-02-18T10:10:44.182Z,45.07
2023-02-18T10:13:33.107Z,44.74
2023-02-18T10:16:20.050Z,45.91
2023-02-18T10:19:14.637Z,45.05
2023-02-18T10:22:04.112Z,44.73
2023-02-18T10:25:02.193Z,44.61
2023-02-18T10:27:50.922Z,43.47
2023-02-18T10:30:42.251Z,43.05
2023-02-18T10:33:34.312Z,44.12
2023-02-18T10:36:45.829Z,43.31
2023-02-18T10:39:48.405Z,43.50
2023-02-18T10:42:40.265Z,43.35
2023-02-18T10:45:50.940Z,44.09
2023-02-18T10:58:33.657Z,44.20
2023-02-18T11:01:21.285Z,45.30
2023-02-18T11:04:19.016Z,43.37
2023-02-18T11:07:07.897Z,44.04
2023-02-18T11:09:56.186Z,42.10
2023-02-18T11:12:49.201Z,40.96
2023-02-18T11:15:35.881Z,41.43
2023-02-18T11:18:40.570Z,39.99
2023-02-18T11:21:34.774Z,40.09
2023-02-18T11:24:20.840Z,41.02
2023-02-18T11:27:21.748Z,41.96
2023-02-18T11:30:28.349Z,42.01
2023-02-18T11:33:32.917Z,42.09
2023-02-18T11:36:25.876Z,40.72
2023-02-18T11:39:28.515Z,39.83
2023-02-18T11:42:16.756Z,39.65
2023-02-18T11:45:05.151Z,39.70
2023-02-18T11:48:00.928Z,40.02
2023-02-18T11:50:52.577Z,39.84
2023-02-18T11:53:38.168Z,40.52
2023-02-18T11:56:24.023Z,40.10
2023-02-18T11:59:10.586Z,40.13
2023-02-18T12:02:05.241Z,41.35
2023-02-18T12:05:01.488Z,40.73
2023-02-18T12:07:52.562Z,40.51
2023-02-18T12:10:43.092Z,39.73
2023-02-18T12:13:35.730Z,39.23
2023-02-18T12:16:45.876Z,37.90
2023-02-18T12:19:54.031Z,36.78
2023-02-18T12:22:45.568Z,37.80
2023-02-18T12:26:06.333Z,37.45
2023-02-18T12:29:25.777Z,37.62
2023-02-18T12:32:30.237Z,37.99
2023-02-18T12:35:41.741Z,35.62
2023-02-18T12:38:50.813Z,36.66
2023-02-18T12:41:55.633Z,37.97
2023-02-18T12:45:32.584Z,37.26
2023-02-18T12:48:49.584Z,36.90
2023-02-18T12:51:40.805Z,38.08
2023-02-18T12:54:39.508Z,37.33
2023-02-18T12:57:39.115Z,37.82
2023-02-18T13:00:27.607Z,37.95
2023-02-18T13:03:47.665Z,38.01
2023-02-18T13:06:40.970Z,37.97
2023-02-18T13:09:51.533Z,38.73
2023-02-18T13:12:40.832Z,38.00
2023-02-18T13:15:44.233Z,37.27
2023-02-18T13:18:37.833Z,37.14
2023-02-18T13:21:24.070Z,37.83
2023-02-18T13:24:18.626Z,37.70
2023-02-18T13:27:07.288Z,37.53
2023-02-18T13:29:52.711Z,38.05
2023-02-18T13:33:06.089Z,36.95
2023-02-18T13:36:05.997Z,36.68
2023-02-18T13:38:56.731Z,36.54
2023-02-18T13:41:43.044Z,37.56
2023-02-18T13:44:29.050Z,37.25
2023-02-18T13:47:41.793Z,37.29
2023-02-18T13:50:31.444Z,37.23
2023-02-18T13:53:22.520Z,37.88
2023-02-18T13:56:20.258Z,37.02
2023-02-18T13:59:17.707Z,38.51
2023-02-18T14:02:22.141Z,38.15
2023-02-18T14:05:07.237Z,38.55
2023-02-18T14:08:07.357Z,38.18
2023-02-18T14:11:16.293Z,37.46
2023-02-18T14:14:31.663Z,39.00
2023-02-18T14:17:20.023Z,37.75
2023-02-18T14:20:05.655Z,36.86
2023-02-18T14:22:52.867Z,36.86
2023-02-18T14:25:41.430Z,37.33
2023-02-18T14:28:40.653Z,37.36
2023-02-18T14:31:35.379Z,37.37
2023-02-18T14:34:24.033Z,37.63
2023-02-18T14:37:15.700Z,36.97
2023-02-18T14:40:39.135Z,38.03
2023-02-18T14:43:46.335Z,38.05
2023-02-18T14:47:02.691Z,38.66
2023-02-18T14:49:52.304Z,38.74
2023-02-18T14:52:43.274Z,38.46
2023-02-18T14:55:32.656Z,39.19
2023-02-18T14:58:32.653Z,39.09
2023-02-18T15:01:22.085Z,38.76
2023-02-18T15:04:07.645Z,39.39
2023-02-18T15:07:05.458Z,38.99
2023-02-18T15:09:54.777Z,39.22
2023-02-18T15:12:41.918Z,39.48
2023-02-18T15:15:27.751Z,40.11
2023-02-18T15:18:35.041Z,39.42
2023-02-18T15:21:27.015Z,39.62
2023-02-18T15:24:30.355Z,39.76
2023-02-18T15:27:20.031Z,39.70
2023-02-18T15:30:20.944Z,40.11
2023-02-18T15:33:13.073Z,39.99
2023-02-18T15:36:06.416Z,39.90
2023-02-18T15:38:51.846Z,40.12
2023-02-18T15:41:37.384Z,40.28
2023-02-18T15:44:27.359Z,40.97
2023-02-18T15:47:14.503Z,41.78
2023-02-18T15:50:03.549Z,41.96
2023-02-18T15:52:50.315Z,43.20
2023-02-18T15:55:41.578Z,44.92
2023-02-18T15:58:30.005Z,45.70
2023-02-18T16:01:27.713Z,47.08
2023-02-18T16:04:15.264Z,47.57
2023-02-18T16:07:04.861Z,49.09
2023-02-18T16:09:51.142Z,49.82
2023-02-18T16:12:39.789Z,51.32
2023-02-18T16:15:29.099Z,51.35
2023-02-18T16:18:40.460Z,52.54
2023-02-18T16:21:43.867Z,53.46
2023-02-18T16:24:33.094Z,53.74
2023-02-18T16:27:18.706Z,54.64
2023-02-18T16:30:17.016Z,55.05
2023-02-18T16:33:02.977Z,55.04
2023-02-18T16:35:50.541Z,56.01
2023-02-18T16:38:36.617Z,56.21
2023-02-18T16:41:22.315Z,56.41
2023-02-18T16:44:14.681Z,56.93
2023-02-18T16:47:00.891Z,57.82
2023-02-18T16:49:50.130Z,57.89
2023-02-18T16:52:37.777Z,58.26
2023-02-18T16:55:27.644Z,58.61
2023-02-18T16:58:13.561Z,58.79
2023-02-18T17:00:58.927Z,58.70
2023-02-18T17:03:47.218Z,58.90
2023-02-18T17:06:34.098Z,59.46
2023-02-18T17:09:25.894Z,59.51
2023-02-18T17:12:12.311Z,60.19
2023-02-18T17:14:57.521Z,59.84
2023-02-18T17:17:42.936Z,60.66
2023-02-18T17:20:30.958Z,60.68
2023-02-18T17:23:22.852Z,61.47
2023-02-18T17:26:26.992Z,61.50
2023-02-18T17:29:12.728Z,61.98
2023-02-18T17:31:59.533Z,61.94
2023-02-18T17:34:45.020Z,62.23
2023-02-18T17:37:30.769Z,62.17
2023-02-18T17:40:18.446Z,62.43
2023-02-18T17:43:04.203Z,62.48
2023-02-18T17:45:53.174Z,63.08
2023-02-18T17:48:39.546Z,63.23
2023-02-18T17:51:29.748Z,63.29
2023-02-18T17:54:20.300Z,63.14
2023-02-18T17:57:05.748Z,63.63
2023-02-18T17:59:51.166Z,63.89
2023-02-18T18:02:36.705Z,63.75
2023-02-18T18:05:34.849Z,63.95
2023-02-18T18:08:20.314Z,63.92
2023-02-18T18:11:06.136Z,64.02
2023-02-18T18:13:53.032Z,63.69
2023-02-18T18:16:38.324Z,64.34
2023-02-18T18:19:23.724Z,66.84
2023-02-18T18:22:09.415Z,66.75
2023-02-18T18:24:54.777Z,67.39
2023-02-18T18:27:40.596Z,67.26
2023-02-18T18:30:28.829Z,67.92
2023-02-18T18:33:30.349Z,68.46
2023-02-18T18:36:16.993Z,68.85
2023-02-18T18:39:03.032Z,69.24
2023-02-18T18:41:48.538Z,69.87
2023-02-18T18:44:33.923Z,70.24
2023-02-18T18:47:20.047Z,70.45
2023-02-18T18:50:05.758Z,70.43
2023-02-18T18:52:53.434Z,70.79
2023-02-18T18:55:40.707Z,71.21
2023-02-18T19:26:14.624Z,74.17
2023-02-18T19:29:01.123Z,74.50
2023-02-18T19:31:46.739Z,74.67
2023-02-18T19:34:32.168Z,75.61
2023-02-18T19:37:17.566Z,76.13
2023-02-18T19:40:06.708Z,76.38
2023-02-18T19:42:52.991Z,76.61
2023-02-18T19:45:44.445Z,77.32
2023-02-18T19:48:30.031Z,77.58
2023-02-18T19:51:15.346Z,77.44
2023-02-18T19:54:00.838Z,77.54
2023-02-18T19:56:46.825Z,77.76
2023-02-18T19:59:32.248Z,77.54
2023-02-18T20:02:21.135Z,77.76
2023-02-18T20:05:08.623Z,77.96
2023-02-18T20:07:54.354Z,77.34
2023-02-18T20:10:39.832Z,77.39
2023-02-18T20:13:25.159Z,77.48
2023-02-18T20:16:11.733Z,78.03
2023-02-18T20:18:57.855Z,78.40
2023-02-18T20:21:43.217Z,78.15
2023-02-18T20:24:30.205Z,79.05
2023-02-18T20:27:16.183Z,78.92
2023-02-18T20:30:01.507Z,79.35
2023-02-18T20:32:47.274Z,78.84
2023-02-18T20:35:33.874Z,79.54
2023-02-18T20:38:19.794Z,79.41
2023-02-18T20:41:11.889Z,79.94
2023-02-18T20:44:00.749Z,79.78
2023-02-18T20:46:49.017Z,79.96
2023-02-18T20:49:35.489Z,80.11
2023-02-18T20:52:20.972Z,80.22
2023-02-18T20:55:06.704Z,80.48
2023-02-18T20:57:52.580Z,80.75
2023-02-18T21:00:38.055Z,81.03
2023-02-18T21:03:24.419Z,80.86
2023-02-18T21:06:16.405Z,80.63
2023-02-18T21:09:02.115Z,80.66
2023-02-18T21:11:48.318Z,80.86
2023-02-18T21:14:34.078Z,81.04
2023-02-18T21:17:19.599Z,81.22
2023-02-18T21:20:05.531Z,81.26
2023-02-18T21:22:50.914Z,81.14
2023-02-18T21:25:38.337Z,81.19
2023-02-18T21:28:24.186Z,81.98
2023-02-18T21:31:24.978Z,81.69
2023-02-18T21:34:13.407Z,82.08
2023-02-18T21:37:00.449Z,82.43
2023-02-18T21:39:50.559Z,82.22
2023-02-18T21:42:37.433Z,82.19
2023-02-18T21:45:23.758Z,82.37
2023-02-18T21:48:27.635Z,82.59
2023-02-18T21:51:32.872Z,81.88
2023-02-18T21:54:25.993Z,81.92
2023-02-18T21:57:20.018Z,81.68
2023-02-18T22:00:19.568Z,82.07
2023-02-18T22:03:05.778Z,82.06
2023-02-18T22:05:51.424Z,82.75
2023-02-18T22:08:36.861Z,82.63
2023-02-18T22:11:22.303Z,82.77
2023-02-18T22:14:08.706Z,83.05
2023-02-18T22:16:54.250Z,83.66
2023-02-18T22:19:40.034Z,83.65
2023-02-18T22:22:25.740Z,83.64
2023-02-18T22:25:11.147Z,83.47
2023-02-18T22:27:56.510Z,82.85
2023-02-18T22:30:42.172Z,82.68
2023-02-18T22:33:27.557Z,82.16
2023-02-18T22:36:13.496Z,82.53
2023-02-18T22:39:00.500Z,82.45
2023-02-18T22:41:46.142Z,82.18
2023-02-18T22:44:31.621Z,82.15
2023-02-18T22:47:17.004Z,81.77
2023-02-18T22:50:02.890Z,81.63
2023-02-18T22:52:48.450Z,81.83
2023-02-18T22:55:33.931Z,81.61
2023-02-18T22:58:19.417Z,81.77
2023-02-18T23:01:06.864Z,81.69
2023-02-18T23:03:53.344Z,82.08
2023-02-18T23:06:41.191Z,82.49
2023-02-18T23:09:26.720Z,82.71
2023-02-18T23:12:12.432Z,82.70
2023-02-18T23:14:58.103Z,83.04
2023-02-18T23:17:43.702Z,83.63
2023-02-18T23:20:47.908Z,83.08
2023-02-18T23:23:37.017Z,82.77
2023-02-18T23:26:25.592Z,82.56
2023-02-18T23:29:10.944Z,82.80
2023-02-18T23:31:56.419Z,83.14
2023-02-18T23:34:42.906Z,83.64
2023-02-18T23:37:51.201Z,83.40
2023-02-18T23:40:36.813Z,84.17
2023-02-18T23:43:22.288Z,84.88
2023-02-18T23:46:07.821Z,85.68
2023-02-18T23:48:53.677Z,85.92
2023-02-18T23:51:39.213Z,86.69
2023-02-18T23:54:25.016Z,86.95
2023-02-18T23:57:10.318Z,86.42
2023-02-18T23:59:55.605Z,85.69
